Labelle, Canada
Current Conditions -  °F | °C
As of 7:00 PM on Wednesday 17 Dec 2014 (Local Time) from CYMX Reporting Station
Light Snow Light Snow  
Wind Chill: 32°   Ceiling: 300
Heat Index: 32°   Visibility: 1.5mi
Dew Point: 30°   Wind: 3mph
Humidity: 93%   Direction: 70°ENE
Pressure: 29.78"   Gusts: NA
Location:  46.28°N, 74.73°W
Report Text: CYMX 180000Z 07003KT 1 1/2SM -SN BR OVC003 M00/M01 A2978 RMK FG4SF4 SLP090
Loading
Personal Weather Stations






























Interactive Weather Map New forecast layout! Learn more

10-Day Weather Forecast

Advertisements
Track Severe Weather on mobile